Time;durP1;ratioP1;P1;durP2;ratioP2;P2;SDS_P1;SDS_P2;PMS_P1;PMS_P2;Temp;Humidity;BMP_temperature;BMP_pressure;BME280_temperature;BME280_humidity;BME280_pressure;Samples;Min_cycle;Max_cycle;Signal;HPM_P1;HPM_P2
2022/10/17 00:00:47;;;;;;;;;9.00;9.00;;;;;19.67;72.14;101123.28;4923315;28;45939;-79
2022/10/17 00:03:12;;;;;;;;;11.00;11.00;;;;;19.70;71.57;101134.75;4915532;28;45361;-79
2022/10/17 00:05:42;;;;;;;;;10.33;10.33;;;;;19.72;72.06;101137.38;4923696;28;45320;-79
2022/10/17 00:08:08;;;;;;;;;11.33;10.67;;;;;19.69;71.67;101126.78;4921637;28;48196;-79
2022/10/17 00:10:34;;;;;;;;;11.00;9.33;;;;;19.71;71.75;101138.31;4906412;28;45249;-79
2022/10/17 00:13:00;;;;;;;;;12.00;11.33;;;;;19.69;71.73;101138.34;4914273;28;45333;-79
2022/10/17 00:15:25;;;;;;;;;11.00;10.67;;;;;19.61;71.97;101124.34;4923542;28;45667;-79
2022/10/17 00:17:50;;;;;;;;;10.33;10.00;;;;;19.71;71.70;101139.16;4919134;28;48002;-78
2022/10/17 00:20:16;;;;;;;;;11.33;9.33;;;;;19.70;71.72;101133.88;4905062;28;45451;-80
2022/10/17 00:22:42;;;;;;;;;10.33;8.67;;;;;19.68;71.40;101127.72;4906655;28;45467;-79
2022/10/17 00:25:08;;;;;;;;;11.67;10.33;;;;;19.67;71.39;101131.31;4927222;28;45398;-79
2022/10/17 00:27:38;;;;;;;;;12.67;12.67;;;;;19.68;71.52;101133.94;4923225;28;45462;-79
2022/10/17 00:30:05;;;;;;;;;11.67;10.67;;;;;19.72;71.58;101145.38;4923266;28;45393;-79
2022/10/17 00:32:30;;;;;;;;;12.33;10.67;;;;;19.75;71.50;101153.28;4906201;28;45314;-79
2022/10/17 00:34:57;;;;;;;;;11.67;10.00;;;;;19.75;71.58;101142.59;4921891;28;45534;-79
2022/10/17 00:37:22;;;;;;;;;9.33;9.33;;;;;19.77;71.33;101146.94;4923365;28;46775;-79
2022/10/17 00:39:48;;;;;;;;;10.33;8.33;;;;;19.74;71.07;101139.06;4923251;28;45415;-79
2022/10/17 00:42:14;;;;;;;;;9.67;9.67;;;;;19.78;70.84;101146.03;4923447;28;45311;-79
2022/10/17 00:44:39;;;;;;;;;11.00;10.67;;;;;19.81;71.16;101148.59;4923111;28;45452;-79
2022/10/17 00:47:10;;;;;;;;;9.67;8.67;;;;;19.83;71.27;101153.88;4923195;28;45434;-79
2022/10/17 00:49:37;;;;;;;;;9.67;9.67;;;;;19.81;70.83;101151.28;4893800;28;45469;-79
2022/10/17 00:52:20;;;;;;;;;10.00;10.00;;;;;19.85;71.10;101151.16;4923180;28;45411;-79
2022/10/17 00:54:50;;;;;;;;;10.33;9.33;;;;;19.82;71.17;101141.47;4923255;28;45289;-79
2022/10/17 00:57:16;;;;;;;;;10.00;10.00;;;;;19.82;70.98;101141.47;4922775;28;45511;-79
2022/10/17 00:59:46;;;;;;;;;11.00;9.33;;;;;19.76;70.95;101133.66;4929372;28;45337;-79
2022/10/17 01:02:14;;;;;;;;;9.33;9.33;;;;;19.81;70.81;101147.75;4912401;28;45543;-79
2022/10/17 01:04:43;;;;;;;;;11.00;10.67;;;;;19.80;70.56;101149.50;4923019;28;45550;-79
2022/10/17 01:07:09;;;;;;;;;11.00;9.67;;;;;19.74;70.73;101139.06;4905289;28;47346;-79
2022/10/17 01:09:35;;;;;;;;;9.00;9.00;;;;;19.74;70.81;101146.19;4923082;28;45277;-79
2022/10/17 01:12:16;;;;;;;;;7.00;7.00;;;;;19.83;70.51;101148.53;4905667;28;45298;-79
2022/10/17 01:14:50;;;;;;;;;10.33;10.33;;;;;19.84;70.59;101139.59;4922750;28;45256;-79
2022/10/17 01:17:25;;;;;;;;;7.50;7.50;;;;;19.82;70.32;101133.44;4910152;28;46289;-79
2022/10/17 01:20:28;;;;;;;;;9.33;9.00;;;;;19.85;70.63;101136.00;4905539;28;45490;-79
2022/10/17 01:23:14;;;;;;;;;10.67;8.33;;;;;19.84;70.31;101139.59;4922714;28;45505;-79
2022/10/17 01:25:54;;;;;;;;;10.67;10.33;;;;;19.83;70.32;101157.44;4925325;28;45333;-79
2022/10/17 01:28:51;;;;;;;;;7.33;7.33;;;;;19.85;70.66;101153.84;4922331;28;46039;-79
2022/10/17 01:31:47;;;;;;;;;10.67;8.00;;;;;19.87;70.57;101157.34;4881454;28;45548;-79
2022/10/17 01:34:39;;;;;;;;;9.00;9.00;;;;;19.86;70.07;101153.78;4904254;28;45281;-79
2022/10/17 01:37:20;;;;;;;;;9.67;9.33;;;;;19.92;70.14;101166.06;4902551;28;45304;-79
2022/10/17 01:39:51;;;;;;;;;10.33;8.00;;;;;19.94;69.84;101172.19;4905224;28;46992;-79
2022/10/17 01:42:30;;;;;;;;;9.00;8.33;;;;;19.96;70.13;101173.03;4922492;28;45383;-79
2022/10/17 01:45:02;;;;;;;;;7.67;7.67;;;;;19.97;69.72;101183.69;4922633;28;45357;-79
2022/10/17 01:47:31;;;;;;;;;6.00;6.00;;;;;19.91;70.19;101175.84;4922071;28;45434;-79
2022/10/17 01:50:05;;;;;;;;;8.00;7.67;;;;;19.88;69.58;101161.75;4922339;28;45340;-79
2022/10/17 01:52:41;;;;;;;;;8.00;6.33;;;;;19.97;69.70;101185.47;4922279;28;45466;-79
2022/10/17 01:55:15;;;;;;;;;11.33;8.67;;;;;19.91;69.94;101175.84;4922668;28;45342;-79
2022/10/17 01:57:46;;;;;;;;;7.00;6.67;;;;;19.93;70.07;101179.34;4910119;28;45329;-79
2022/10/17 02:00:20;;;;;;;;;8.33;8.33;;;;;19.88;69.95;101175.09;4931313;28;45818;-79
2022/10/17 02:02:48;;;;;;;;;10.00;9.00;;;;;19.83;69.89;101173.47;4910589;28;45336;-79
2022/10/17 02:05:16;;;;;;;;;9.67;9.33;;;;;19.86;69.94;101183.19;4922298;28;45390;-79
2022/10/17 02:07:41;;;;;;;;;9.00;7.67;;;;;19.78;69.64;101172.78;4917732;28;45527;-79
2022/10/17 02:10:21;;;;;;;;;7.00;7.00;;;;;19.81;69.94;101175.31;4921149;28;45475;-79
2022/10/17 02:13:03;;;;;;;;;12.00;8.67;;;;;19.82;69.74;101179.72;4922348;28;45440;-79
2022/10/17 02:16:05;;;;;;;;;12.33;11.33;;;;;19.77;70.04;101176.34;4920790;28;45312;-79
2022/10/17 02:18:56;;;;;;;;;8.33;8.33;;;;;19.70;69.95;101176.59;4920717;28;45853;-79
2022/10/17 02:21:43;;;;;;;;;10.00;9.67;;;;;19.70;69.91;101180.19;4925486;28;45683;-79
2022/10/17 02:24:23;;;;;;;;;9.67;8.67;;;;;19.60;70.09;101160.00;4925916;28;45401;-79
2022/10/17 02:27:08;;;;;;;;;9.33;8.33;;;;;19.62;70.43;101168.84;4925778;28;45300;-79
2022/10/17 02:29:44;;;;;;;;;11.00;11.00;;;;;19.57;70.18;101162.78;4907921;28;45303;-79
2022/10/17 02:32:18;;;;;;;;;7.33;7.00;;;;;19.53;69.90;101155.81;4907843;28;48448;-79
2022/10/17 02:34:50;;;;;;;;;10.33;9.33;;;;;19.51;70.42;101162.97;4922563;28;45901;-79
2022/10/17 02:37:22;;;;;;;;;9.67;8.00;;;;;19.50;70.66;101153.25;4925454;28;45332;-79
2022/10/17 02:39:49;;;;;;;;;8.33;8.33;;;;;19.49;70.03;101162.19;4907894;28;45432;-79
2022/10/17 02:42:16;;;;;;;;;8.67;7.67;;;;;19.39;70.34;101154.47;4925207;28;45437;-79
2022/10/17 02:44:44;;;;;;;;;11.00;10.00;;;;;19.43;70.77;101170.38;4907453;28;45648;-79
2022/10/17 02:47:32;;;;;;;;;10.00;10.00;;;;;19.39;70.17;101166.97;4924928;28;45313;-79
2022/10/17 02:49:58;;;;;;;;;11.00;9.67;;;;;19.37;70.48;101164.31;4924896;28;45379;-79
2022/10/17 02:52:57;;;;;;;;;4.00;3.00;;;;;19.44;70.67;101173.00;4924904;28;45456;-79
2022/10/17 02:55:31;;;;;;;;;7.33;7.00;;;;;19.39;70.27;101162.47;4891213;28;45528;-79
2022/10/17 02:58:03;;;;;;;;;8.67;8.00;;;;;19.39;69.94;101161.63;4924842;28;45317;-79
2022/10/17 03:00:30;;;;;;;;;8.67;6.67;;;;;19.49;69.85;101176.41;4925734;28;45423;-79
2022/10/17 03:02:55;;;;;;;;;7.00;7.00;;;;;19.51;70.33;101162.97;4913969;28;46747;-79
2022/10/17 03:05:25;;;;;;;;;8.67;7.67;;;;;19.46;69.91;101160.50;4924779;28;45363;-79
2022/10/17 03:07:52;;;;;;;;;7.67;7.67;;;;;19.50;69.77;101154.09;4925177;28;45231;-79
2022/10/17 03:10:18;;;;;;;;;8.67;7.33;;;;;19.53;69.78;101172.69;4908195;28;45879;-79
2022/10/17 03:12:44;;;;;;;;;9.00;8.00;;;;;19.56;69.75;101179.72;4907002;28;47151;-79
2022/10/17 03:15:10;;;;;;;;;7.33;7.33;;;;;19.47;69.51;101159.56;4924414;28;45410;-79
2022/10/17 03:17:36;;;;;;;;;8.33;7.00;;;;;19.57;69.47;101174.34;4924713;28;45379;-79
2022/10/17 03:20:03;;;;;;;;;6.33;5.33;;;;;19.55;69.03;101167.31;4924580;28;45424;-79
2022/10/17 03:22:28;;;;;;;;;8.00;8.00;;;;;19.58;69.41;101168.06;4924628;28;45361;-78
2022/10/17 03:24:54;;;;;;;;;8.00;8.00;;;;;19.54;68.86;101170.88;4927945;28;45264;-79
2022/10/17 03:27:19;;;;;;;;;8.33;8.33;;;;;19.54;68.82;101173.56;4907285;28;45175;-79
2022/10/17 03:29:44;;;;;;;;;8.67;8.33;;;;;19.50;68.96;101178.13;4924217;28;46279;-79
2022/10/17 03:32:13;;;;;;;;;8.33;8.33;;;;;19.57;68.78;101197.53;4923422;28;45257;-80
2022/10/17 03:34:38;;;;;;;;;8.00;8.00;;;;;19.56;68.52;101203.75;4918395;28;46233;-79
2022/10/17 03:37:04;;;;;;;;;7.67;7.67;;;;;19.52;68.57;101205.69;4897953;28;45420;-79
2022/10/17 03:39:29;;;;;;;;;7.33;7.33;;;;;19.55;68.60;101207.38;4907154;28;45407;-79
2022/10/17 03:41:54;;;;;;;;;6.33;6.33;;;;;19.59;68.66;101220.59;4907059;28;46052;-79
2022/10/17 03:44:20;;;;;;;;;6.67;6.67;;;;;19.55;68.50;101213.59;4924006;28;45375;-80
2022/10/17 03:46:45;;;;;;;;;10.00;7.33;;;;;19.58;68.58;101217.94;4924383;28;45734;-79
2022/10/17 03:49:11;;;;;;;;;6.67;5.67;;;;;19.60;68.62;101224.13;4907065;28;45765;-80
2022/10/17 03:51:36;;;;;;;;;4.67;4.67;;;;;19.60;68.81;101224.13;4924377;28;46321;-78
2022/10/17 03:54:02;;;;;;;;;6.00;6.00;;;;;19.60;68.55;101229.47;4924064;28;45387;-79
2022/10/17 03:56:27;;;;;;;;;7.00;7.00;;;;;19.60;68.39;101232.13;4923080;28;45289;-79
2022/10/17 03:58:54;;;;;;;;;10.00;8.33;;;;;19.54;68.64;101224.31;4927409;28;45327;-80
2022/10/17 04:01:20;;;;;;;;;7.00;7.00;;;;;19.51;68.31;101213.72;4921253;28;45497;-80
2022/10/17 04:03:50;;;;;;;;;7.33;6.67;;;;;19.55;68.33;101236.75;4919937;28;45323;-79
2022/10/17 04:06:16;;;;;;;;;9.33;8.00;;;;;19.50;68.74;101231.56;4906957;28;45403;-80
2022/10/17 04:08:41;;;;;;;;;7.00;7.00;;;;;19.47;68.23;101233.47;4927133;28;45460;-80
2022/10/17 04:11:09;;;;;;;;;8.67;8.33;;;;;19.53;68.72;101246.59;4923906;28;45296;-79
2022/10/17 04:13:35;;;;;;;;;8.67;7.67;;;;;19.45;68.55;101228.16;4906319;28;45286;-80
2022/10/17 04:16:07;;;;;;;;;6.00;6.00;;;;;19.51;68.59;101241.34;4906538;28;45350;-80
2022/10/17 04:18:33;;;;;;;;;10.33;9.00;;;;;19.50;68.41;101242.22;4924153;28;45228;-79
2022/10/17 04:21:03;;;;;;;;;8.67;8.00;;;;;19.51;68.09;101246.69;4923827;28;46271;-80
2022/10/17 04:23:29;;;;;;;;;5.33;5.33;;;;;19.48;67.82;101248.56;4923816;28;45338;-80
2022/10/17 04:25:58;;;;;;;;;7.67;7.67;;;;;19.48;68.14;101248.56;4909439;28;45384;-80
2022/10/17 04:28:25;;;;;;;;;8.33;7.33;;;;;19.45;68.06;101244.19;4923828;28;45278;-80
2022/10/17 04:31:10;;;;;;;;;7.33;6.33;;;;;19.50;68.03;101252.06;4923462;28;46218;-77
2022/10/17 04:33:36;;;;;;;;;9.67;7.00;;;;;19.42;67.82;101238.94;4913311;28;45165;-78
2022/10/17 04:36:14;;;;;;;;;8.33;7.00;;;;;19.50;67.99;101258.25;4923531;28;45446;-79
2022/10/17 04:38:39;;;;;;;;;6.33;6.33;;;;;19.48;68.41;101270.78;4923800;28;45321;-79
2022/10/17 04:41:07;;;;;;;;;9.00;7.00;;;;;19.51;68.18;101276.06;4921910;28;48268;-80
2022/10/17 04:43:35;;;;;;;;;9.67;9.00;;;;;19.52;68.20;101274.25;4923211;28;45228;-79
2022/10/17 04:46:03;;;;;;;;;8.00;8.00;;;;;19.52;68.16;101271.59;4906071;28;45296;-80
2022/10/17 04:48:28;;;;;;;;;6.67;6.67;;;;;19.52;67.34;101261.75;4923333;28;45481;-80
2022/10/17 04:50:55;;;;;;;;;7.67;7.00;;;;;19.55;67.54;101267.00;4902562;29;46030;-80
2022/10/17 04:53:22;;;;;;;;;6.00;6.00;;;;;19.57;67.28;101274.97;4915514;28;45442;-81
2022/10/17 04:55:47;;;;;;;;;7.00;7.00;;;;;19.55;67.70;101268.81;4923284;28;45483;-79
2022/10/17 04:58:13;;;;;;;;;8.67;8.00;;;;;19.60;67.37;101294.44;4924597;28;45326;-80
2022/10/17 05:00:38;;;;;;;;;7.33;6.67;;;;;19.58;67.26;101279.38;4909163;28;47155;-80
2022/10/17 05:03:04;;;;;;;;;4.33;4.33;;;;;19.57;67.39;101285.66;4914218;28;45272;-79
2022/10/17 05:05:29;;;;;;;;;9.33;8.33;;;;;19.56;67.07;101283.91;4923338;28;45284;-79
2022/10/17 05:07:55;;;;;;;;;8.67;8.00;;;;;19.56;67.18;101283.91;4923345;28;45320;-80
2022/10/17 05:10:20;;;;;;;;;6.33;6.33;;;;;19.63;67.35;101312.16;4923333;28;45332;-80
2022/10/17 05:12:47;;;;;;;;;6.33;5.67;;;;;19.66;66.83;101321.88;4905903;28;45260;-79
2022/10/17 05:15:13;;;;;;;;;8.33;8.00;;;;;19.67;67.22;101329.84;4923004;28;45382;-79
2022/10/17 05:17:38;;;;;;;;;8.00;8.00;;;;;19.63;66.83;101319.31;4922328;28;45344;-79
2022/10/17 05:20:04;;;;;;;;;7.33;7.33;;;;;19.57;66.98;101299.88;4922653;28;45359;-80
2022/10/17 05:22:30;;;;;;;;;6.00;6.00;;;;;19.63;66.87;101309.50;4923198;28;45334;-80
2022/10/17 05:24:55;;;;;;;;;7.33;6.00;;;;;19.59;67.23;101303.38;4925730;28;45351;-80
2022/10/17 05:27:21;;;;;;;;;8.00;8.00;;;;;19.66;67.59;101306.75;4922803;28;45530;-80
2022/10/17 05:29:46;;;;;;;;;8.67;7.67;;;;;19.56;67.44;101306.13;4922389;28;46362;-80
2022/10/17 05:32:11;;;;;;;;;9.33;8.00;;;;;19.62;67.13;101326.47;4922713;28;45243;-80
2022/10/17 05:34:37;;;;;;;;;7.67;7.67;;;;;19.64;67.77;101323.72;4921471;28;45675;-80
2022/10/17 05:37:02;;;;;;;;;9.33;8.33;;;;;19.63;67.52;101328.19;4922914;28;45222;-79
2022/10/17 05:39:28;;;;;;;;;11.33;11.00;;;;;19.58;67.33;101304.28;4922261;28;45324;-80
2022/10/17 05:41:53;;;;;;;;;9.00;8.00;;;;;19.60;67.58;101306.94;4922807;28;45295;-79
2022/10/17 05:44:18;;;;;;;;;11.00;10.00;;;;;19.64;67.67;101323.72;4922405;28;45226;-80
2022/10/17 05:46:44;;;;;;;;;7.33;7.33;;;;;19.57;67.39;101315.91;4922596;28;45221;-80
2022/10/17 05:49:09;;;;;;;;;6.67;6.67;;;;;19.64;67.35;101332.59;4922283;28;46329;-80
2022/10/17 05:51:35;;;;;;;;;8.00;7.33;;;;;19.63;67.62;101333.53;4922505;28;45269;-80
2022/10/17 05:54:00;;;;;;;;;8.33;6.67;;;;;19.63;67.97;101325.53;4921870;28;45341;-79
2022/10/17 05:56:26;;;;;;;;;9.00;8.00;;;;;19.58;68.05;101319.44;4922512;28;45312;-79
2022/10/17 05:58:51;;;;;;;;;11.33;9.00;;;;;19.57;68.50;101315.03;4907914;28;47220;-79
2022/10/17 06:01:17;;;;;;;;;7.67;7.67;;;;;19.53;68.64;101316.03;4919377;28;45431;-79
2022/10/17 06:03:42;;;;;;;;;9.33;7.00;;;;;19.54;68.38;101315.13;4917552;28;45426;-76
2022/10/17 06:06:11;;;;;;;;;7.67;6.00;;;;;19.52;68.80;101311.63;4904948;28;45366;-75
2022/10/17 06:08:37;;;;;;;;;7.00;7.00;;;;;19.43;68.83;101291.41;4920431;28;47690;-78
2022/10/17 06:11:02;;;;;;;;;9.00;9.00;;;;;19.46;69.05;101291.34;4922317;28;45260;-78
2022/10/17 06:13:28;;;;;;;;;10.67;8.67;;;;;19.36;69.06;101287.22;4922117;28;45184;-77
2022/10/17 06:15:53;;;;;;;;;11.33;9.33;;;;;19.37;69.32;101311.19;4922063;28;45244;-77
2022/10/17 06:18:19;;;;;;;;;8.67;8.67;;;;;19.32;69.56;101321.13;4903571;28;46561;-75
2022/10/17 06:20:45;;;;;;;;;17.00;16.00;;;;;19.32;69.29;101322.94;4922201;28;45307;-75
2022/10/17 06:23:10;;;;;;;;;13.67;12.00;;;;;19.23;69.95;101320.56;4904843;28;45486;-75
2022/10/17 06:25:35;;;;;;;;;8.33;8.33;;;;;19.25;69.38;101332.94;4925413;28;45409;-78
2022/10/17 06:28:01;;;;;;;;;10.33;9.33;;;;;19.24;70.23;101348.97;4903201;28;46955;-78
2022/10/17 06:30:26;;;;;;;;;13.00;13.00;;;;;19.20;70.38;101352.69;4921997;28;45221;-75
2022/10/17 06:32:52;;;;;;;;;12.67;11.00;;;;;19.16;70.03;101343.88;4921874;28;45509;-75
2022/10/17 06:35:18;;;;;;;;;11.67;10.33;;;;;19.21;69.83;101357.97;4921903;28;45459;-76
2022/10/17 06:37:44;;;;;;;;;9.67;7.00;;;;;19.17;69.94;101351.84;4921562;28;45555;-75
2022/10/17 06:40:11;;;;;;;;;11.00;10.00;;;;;19.15;70.00;101353.69;4921737;28;45487;-76
2022/10/17 06:42:40;;;;;;;;;10.00;8.67;;;;;19.22;70.32;101353.50;4904372;28;45359;-75
2022/10/17 06:45:07;;;;;;;;;11.67;11.67;;;;;19.22;70.08;101362.41;4921615;28;45446;-76
2022/10/17 06:47:33;;;;;;;;;7.00;6.00;;;;;19.24;70.23;101375.69;4921368;28;46156;-79
2022/10/17 06:49:58;;;;;;;;;10.00;10.00;;;;;19.27;69.67;101372.91;4904643;28;45365;-78
2022/10/17 06:52:23;;;;;;;;;6.67;6.67;;;;;19.30;69.95;101388.84;4904483;28;45959;-75
2022/10/17 06:54:50;;;;;;;;;7.67;7.67;;;;;19.32;69.92;101390.53;4921679;28;45435;-75
2022/10/17 06:57:16;;;;;;;;;10.00;9.00;;;;;19.32;69.81;101395.88;4904236;28;48026;-76
2022/10/17 06:59:41;;;;;;;;;8.33;8.00;;;;;19.33;69.78;101383.44;4927116;28;45327;-76
2022/10/17 07:02:09;;;;;;;;;9.00;9.00;;;;;19.32;69.97;101398.56;4911033;28;45246;-75
2022/10/17 07:04:34;;;;;;;;;10.00;8.00;;;;;19.33;70.01;101411.00;4921270;28;45487;-76
2022/10/17 07:07:01;;;;;;;;;6.67;6.67;;;;;19.35;69.49;101417.19;4928056;28;45471;-76
2022/10/17 07:09:28;;;;;;;;;10.00;9.00;;;;;19.42;70.02;101431.22;4925470;28;45424;-75
2022/10/17 07:11:53;;;;;;;;;11.33;9.33;;;;;19.45;69.68;101451.63;4910643;28;45361;-76
2022/10/17 07:14:19;;;;;;;;;11.67;9.67;;;;;19.42;70.08;101446.38;4924190;28;45453;-76
2022/10/17 07:16:44;;;;;;;;;7.33;7.33;;;;;19.43;69.94;101434.75;4924764;28;45430;-76
2022/10/17 07:19:10;;;;;;;;;8.00;8.00;;;;;19.46;69.69;101450.69;4891560;28;45477;-77
2022/10/17 07:21:35;;;;;;;;;9.33;8.67;;;;;19.50;69.76;101458.56;4924459;28;46112;-79
2022/10/17 07:24:00;;;;;;;;;7.33;7.00;;;;;19.58;69.66;101479.72;4923061;28;45443;-77
2022/10/17 07:26:26;;;;;;;;;10.00;9.67;;;;;19.62;69.61;101489.41;4927279;28;45716;-77
2022/10/17 07:28:54;;;;;;;;;10.00;7.67;;;;;19.61;69.77;101483.16;4924167;28;45523;-77
2022/10/17 07:31:21;;;;;;;;;10.00;8.00;;;;;19.72;69.53;101506.06;4922711;28;45286;-78
2022/10/17 07:33:47;;;;;;;;;9.00;9.00;;;;;19.75;69.57;101506.84;4924232;28;45188;-77
2022/10/17 07:36:13;;;;;;;;;9.00;9.00;;;;;19.78;69.47;101503.19;4922516;28;45510;-78
2022/10/17 07:38:39;;;;;;;;;9.67;9.00;;;;;19.85;68.97;101514.59;4924247;28;45476;-78
2022/10/17 07:41:06;;;;;;;;;8.00;8.00;;;;;19.87;69.13;101510.94;4906706;28;45382;-77
2022/10/17 07:43:33;;;;;;;;;8.33;7.33;;;;;19.89;69.38;101516.22;4923823;28;45395;-77
2022/10/17 07:46:00;;;;;;;;;10.00;10.00;;;;;19.89;69.25;101524.25;4923628;28;45527;-77
2022/10/17 07:48:26;;;;;;;;;7.00;6.33;;;;;19.88;68.89;101531.41;4924014;28;45293;-79
2022/10/17 07:50:51;;;;;;;;;5.67;5.67;;;;;19.87;69.17;101518.97;4923918;28;45249;-78
2022/10/17 07:53:18;;;;;;;;;10.00;8.00;;;;;19.87;68.69;101531.47;4924128;28;45469;-81
2022/10/17 07:55:45;;;;;;;;;9.00;9.00;;;;;19.79;68.96;101523.66;4922686;28;48068;-79
2022/10/17 07:58:11;;;;;;;;;11.00;9.33;;;;;19.80;68.88;101525.41;4906240;28;45458;-79
2022/10/17 08:00:37;;;;;;;;;11.00;9.00;;;;;19.86;68.81;101546.63;4927041;28;45356;-78
2022/10/17 08:03:03;;;;;;;;;9.00;9.00;;;;;19.82;68.83;101543.16;4897191;28;45338;-79
2022/10/17 08:05:29;;;;;;;;;8.00;8.00;;;;;19.88;68.89;101555.44;4923786;28;45988;-79
2022/10/17 08:07:54;;;;;;;;;10.33;7.67;;;;;19.89;68.89;101565.25;4924069;28;45293;-80
2022/10/17 08:10:20;;;;;;;;;11.67;9.33;;;;;19.89;69.06;101567.00;4903325;28;45460;-79
2022/10/17 08:12:46;;;;;;;;;6.67;6.33;;;;;19.90;69.36;101563.44;4903262;29;45465;-80
2022/10/17 08:15:11;;;;;;;;;10.67;7.67;;;;;19.95;69.24;101581.09;4921066;28;46428;-80
2022/10/17 08:17:38;;;;;;;;;7.00;7.00;;;;;20.01;69.21;101586.25;4923482;28;45521;-81
2022/10/17 08:20:04;;;;;;;;;10.00;10.00;;;;;20.05;69.06;101590.59;4922257;28;45420;-81
2022/10/17 08:22:31;;;;;;;;;10.00;9.33;;;;;20.10;69.12;101584.22;4919234;28;45503;-81
2022/10/17 08:24:56;;;;;;;;;7.67;7.67;;;;;20.12;69.07;101585.91;4924437;28;45547;-81
2022/10/17 08:27:26;;;;;;;;;8.00;8.00;;;;;20.21;69.01;101585.66;4924262;28;45156;-86
2022/10/17 08:29:53;;;;;;;;;10.00;7.67;;;;;20.31;68.68;101598.75;4923066;28;45547;-83
2022/10/17 08:32:24;;;;;;;;;7.33;6.00;;;;;20.31;68.45;101598.75;4923426;28;45536;-91
2022/10/17 08:34:50;;;;;;;;;8.33;8.33;;;;;20.32;68.48;101592.50;4916498;28;47431;-87
2022/10/17 08:37:15;;;;;;;;;8.33;8.33;;;;;20.47;68.41;101611.63;4923427;28;45736;-87
2022/10/17 08:39:41;;;;;;;;;7.00;5.00;;;;;20.49;68.21;101616.91;4921694;28;45368;-85
2022/10/17 08:42:28;;;;;;;;;8.00;6.67;;;;;20.56;68.33;101626.53;4906807;28;45521;-86
2022/10/17 08:45:13;;;;;;;;;5.33;4.67;;;;;20.61;67.75;101618.34;4903760;28;47212;-83
2022/10/17 08:47:44;;;;;;;;;5.00;4.00;;;;;20.60;67.88;101612.13;4923219;28;45790;-84
2022/10/17 08:50:36;;;;;;;;;8.67;7.67;;;;;20.69;67.96;101624.34;4923810;28;45316;-85
2022/10/17 08:53:13;;;;;;;;;6.33;5.67;;;;;20.77;67.60;101626.75;4895430;28;45528;-85
2022/10/17 08:55:44;;;;;;;;;6.33;5.33;;;;;20.71;67.55;101617.13;4925738;28;47146;-94
2022/10/17 08:58:27;;;;;;;;;7.67;6.67;;;;;20.80;67.92;101642.75;4915749;28;45363;-96
2022/10/17 09:01:07;;;;;;;;;9.33;9.33;;;;;20.70;67.51;101644.81;4902253;28;45491;-94
2022/10/17 09:03:54;;;;;;;;;9.00;7.00;;;;;20.72;67.58;101652.81;4910394;28;45388;-86
2022/10/17 09:06:24;;;;;;;;;4.00;3.33;;;;;20.66;67.66;101656.53;4932217;28;45425;-83
2022/10/17 09:09:15;;;;;;;;;7.00;6.00;;;;;20.63;67.38;101662.84;4926099;28;45446;-87
2022/10/17 09:12:01;;;;;;;;;10.00;6.00;;;;;20.58;67.74;101664.81;4910268;28;45489;-87
2022/10/17 09:14:57;;;;;;;;;5.67;5.00;;;;;20.56;67.80;101680.03;4921875;28;46368;-86
2022/10/17 09:17:30;;;;;;;;;6.00;6.00;;;;;20.52;67.85;101682.81;4906945;28;46515;-87
2022/10/17 09:20:01;;;;;;;;;6.33;6.00;;;;;20.47;68.15;101689.19;4914046;28;45426;-89
2022/10/17 09:22:42;;;;;;;;;6.33;6.00;;;;;20.44;68.14;101685.72;4918919;28;45422;-84
2022/10/17 09:25:14;;;;;;;;;8.00;7.00;;;;;20.40;68.57;101687.63;4907543;28;45522;-81
2022/10/17 09:27:58;;;;;;;;;5.00;5.00;;;;;20.39;68.85;101709.91;4928597;28;47087;-84
2022/10/17 09:30:35;;;;;;;;;9.00;8.00;;;;;20.36;68.86;101718.03;4924090;28;45217;-86
2022/10/17 09:33:09;;;;;;;;;7.67;6.00;;;;;20.35;69.15;101718.09;4909471;28;45221;-87
2022/10/17 09:35:37;;;;;;;;;7.33;6.00;;;;;20.31;69.13;101722.63;4921097;28;44753;-83
2022/10/17 09:38:02;;;;;;;;;8.00;6.67;;;;;20.30;69.58;101720.88;4914740;28;46649;-83
2022/10/17 09:40:33;;;;;;;;;8.33;7.33;;;;;20.31;69.62;101730.66;4921751;28;45534;-82
2022/10/17 09:43:03;;;;;;;;;9.00;9.00;;;;;20.31;69.96;101736.00;4903429;28;45554;-82
2022/10/17 09:45:36;;;;;;;;;8.33;7.67;;;;;20.28;69.93;101725.41;4922927;28;45567;-84
2022/10/17 09:48:17;;;;;;;;;7.67;7.67;;;;;20.32;70.15;101735.09;4907170;28;47975;-85
2022/10/17 09:50:45;;;;;;;;;8.33;7.33;;;;;20.34;70.60;101735.94;4902857;28;45334;-83
2022/10/17 09:53:25;;;;;;;;;12.00;10.00;;;;;20.24;70.81;101724.63;4925501;28;45576;-91
2022/10/17 09:55:57;;;;;;;;;9.67;7.00;;;;;20.24;70.85;101723.75;4922631;28;45498;-82
2022/10/17 09:58:38;;;;;;;;;8.67;8.00;;;;;20.27;70.87;101731.69;4928591;28;46635;-86
2022/10/17 10:01:20;;;;;;;;;9.00;8.00;;;;;20.16;71.02;101715.06;4915623;28;45264;-91
2022/10/17 10:03:46;;;;;;;;;10.00;8.67;;;;;20.12;71.30;101721.41;4928668;28;45045;-94
2022/10/17 10:06:21;;;;;;;;;9.00;9.00;;;;;20.11;71.47;101722.34;4906782;28;45768;-93
2022/10/17 10:09:03;;;;;;;;;7.67;7.67;;;;;20.01;71.79;101711.88;4906214;28;47966;-86
2022/10/17 10:11:48;;;;;;;;;12.00;10.00;;;;;20.13;71.91;101739.19;4921191;28;45606;-91
2022/10/17 10:14:19;;;;;;;;;10.33;8.67;;;;;20.13;72.38;101747.22;4899484;28;45368;-90
2022/10/17 10:16:52;;;;;;;;;9.00;8.00;;;;;20.12;72.36;101753.50;4917217;28;45516;-90
2022/10/17 10:19:23;;;;;;;;;11.00;9.67;;;;;20.12;72.78;101757.03;4900963;28;47369;-84
2022/10/17 10:21:58;;;;;;;;;7.67;6.67;;;;;20.12;72.66;101757.03;4903785;28;46093;-84
2022/10/17 10:24:25;;;;;;;;;9.67;9.33;;;;;20.10;72.35;101756.22;4936167;28;45348;-83
2022/10/17 10:26:53;;;;;;;;;11.00;10.00;;;;;20.10;72.28;101761.56;4917494;28;45552;-86
2022/10/17 10:29:31;;;;;;;;;11.33;9.67;;;;;20.05;72.58;101756.34;4926017;28;47814;-88
2022/10/17 10:32:14;;;;;;;;;8.67;8.67;;;;;20.11;73.10;101770.47;4907046;28;45442;-87
2022/10/17 10:34:52;;;;;;;;;9.00;8.00;;;;;20.09;72.96;101765.13;4920829;28;45323;-86
2022/10/17 10:37:25;;;;;;;;;11.33;9.33;;;;;20.10;73.05;101790.97;4905533;28;45375;-83
2022/10/17 10:40:05;;;;;;;;;10.67;9.67;;;;;20.11;73.20;101795.41;4919468;28;46957;-87
2022/10/17 10:42:40;;;;;;;;;13.00;11.00;;;;;20.06;73.62;101794.63;4904816;28;45280;-95
2022/10/17 10:45:24;;;;;;;;;14.00;12.00;;;;;20.16;73.28;101808.66;4910971;28;45450;-80
2022/10/17 10:47:50;;;;;;;;;13.00;12.00;;;;;20.17;73.52;101805.06;4930492;28;45573;-82
2022/10/17 10:50:28;;;;;;;;;15.00;11.33;;;;;20.19;73.42;101813.91;4924099;28;45843;-84
2022/10/17 10:53:11;;;;;;;;;16.67;14.67;;;;;20.23;73.58;101808.44;4925723;28;45309;-83
2022/10/17 10:55:57;;;;;;;;;11.00;10.00;;;;;20.30;73.69;101814.50;4921156;28;45604;-83
2022/10/17 10:58:29;;;;;;;;;11.00;11.00;;;;;20.39;73.65;101816.03;4915675;28;45627;-79
2022/10/17 11:00:59;;;;;;;;;11.00;8.00;;;;;20.34;73.52;101808.16;4925379;28;46115;-82
2022/10/17 11:03:41;;;;;;;;;10.00;10.00;;;;;20.45;73.16;101826.59;4916651;28;46224;-81
2022/10/17 11:06:29;;;;;;;;;12.67;11.67;;;;;20.47;72.99;101825.63;4905045;28;45404;-85
2022/10/17 11:09:13;;;;;;;;;11.00;9.00;;;;;20.47;73.18;101812.25;4926976;28;45453;-83
2022/10/17 11:11:54;;;;;;;;;10.33;10.33;;;;;20.52;72.92;101819.25;4931687;28;47601;-84
2022/10/17 11:14:26;;;;;;;;;12.33;10.33;;;;;20.56;72.97;101811.16;4922078;28;45997;-84
2022/10/17 11:17:11;;;;;;;;;14.00;11.00;;;;;20.65;73.08;101812.66;4925128;28;45365;-83
2022/10/17 11:19:45;;;;;;;;;10.00;9.33;;;;;20.72;73.07;101808.03;4916663;28;45712;-84
2022/10/17 11:22:14;;;;;;;;;9.67;9.33;;;;;20.82;72.87;101812.16;4930593;28;45602;-83
2022/10/17 11:24:56;;;;;;;;;12.00;11.00;;;;;20.88;72.71;101817.38;4932883;28;45467;-84
2022/10/17 11:27:23;;;;;;;;;10.00;8.67;;;;;20.86;72.60;101811.19;4930464;28;45228;-83
2022/10/17 11:29:49;;;;;;;;;9.33;9.00;;;;;20.90;72.19;101827.13;4918770;28;45691;-85
2022/10/17 11:32:24;;;;;;;;;8.67;8.67;;;;;20.96;72.32;101833.22;4913111;28;47302;-84
2022/10/17 11:35:02;;;;;;;;;11.33;10.67;;;;;20.92;72.11;101833.28;4925501;28;44730;-84
2022/10/17 11:37:33;;;;;;;;;11.00;11.00;;;;;20.95;72.22;101843.00;4929380;28;45480;-84